createdAt,value
2023-05-02T00:00:13.201Z,7.18
2023-05-02T00:06:15.733Z,7.12
2023-05-02T00:12:18.171Z,5.36
2023-05-02T00:18:20.666Z,7.21
2023-05-02T00:24:23.144Z,7.19
2023-05-02T00:30:25.616Z,7.37
2023-05-02T00:36:31.154Z,6.29
2023-05-02T00:42:38.706Z,7.19
2023-05-02T00:48:42.188Z,6.94
2023-05-02T00:54:45.659Z,6.43
2023-05-02T01:01:20.291Z,5.73
2023-05-02T01:07:25.744Z,5.60
2023-05-02T01:13:33.339Z,5.63
2023-05-02T01:19:48.848Z,6.48
2023-05-02T01:26:03.418Z,5.69
2023-05-02T01:32:10.886Z,5.44
2023-05-02T01:38:19.396Z,6.13
2023-05-02T01:44:23.935Z,6.29
2023-05-02T01:50:27.501Z,6.50
2023-05-02T01:56:33.984Z,5.56
2023-05-02T02:02:38.460Z,5.90
2023-05-02T02:08:43.930Z,6.07
2023-05-02T02:14:51.757Z,4.89
2023-05-02T02:20:56.896Z,3.15
2023-05-02T02:27:01.368Z,3.50
2023-05-02T02:33:03.950Z,5.47
2023-05-02T02:39:45.455Z,5.72
2023-05-02T02:46:03.129Z,5.68
2023-05-02T02:52:16.560Z,4.94
2023-05-02T02:58:28.115Z,5.05
2023-05-02T03:04:33.599Z,5.65
2023-05-02T03:10:36.102Z,4.46
2023-05-02T03:16:42.646Z,5.11
2023-05-02T03:22:45.085Z,5.61
2023-05-02T03:28:47.547Z,5.63
2023-05-02T03:34:52.041Z,5.43
2023-05-02T03:40:58.530Z,5.36
2023-05-02T03:47:01.067Z,5.43
2023-05-02T03:53:05.482Z,5.58
2023-05-02T03:59:07.962Z,5.94
2023-05-02T04:05:10.532Z,6.35
2023-05-02T04:11:12.914Z,7.09
2023-05-02T04:17:16.473Z,7.67
2023-05-02T04:23:19.886Z,7.82
2023-05-02T04:29:26.365Z,8.08
2023-05-02T04:35:28.877Z,8.36
2023-05-02T04:41:31.354Z,8.83
2023-05-02T04:47:33.940Z,9.15
2023-05-02T04:53:36.318Z,9.10
2023-05-02T04:59:39.782Z,9.83
2023-05-02T05:05:42.310Z,10.34
2023-05-02T05:11:46.734Z,10.52
2023-05-02T05:17:49.258Z,10.14
2023-05-02T05:23:51.689Z,10.69
2023-05-02T05:29:56.103Z,11.09
2023-05-02T05:36:07.742Z,11.00
2023-05-02T05:42:12.233Z,10.78
2023-05-02T05:48:14.747Z,11.87
2023-05-02T05:54:19.260Z,11.33
2023-05-02T06:00:23.780Z,11.84
2023-05-02T06:06:28.324Z,12.20
2023-05-02T06:12:31.719Z,13.16
2023-05-02T06:18:34.217Z,13.17
2023-05-02T06:24:38.035Z,13.66
2023-05-02T06:30:41.917Z,13.73
2023-05-02T06:36:44.650Z,14.77
2023-05-02T06:42:57.164Z,14.81
2023-05-02T06:48:59.628Z,15.41
2023-05-02T06:55:02.092Z,15.72
2023-05-02T07:01:04.624Z,16.10
2023-05-02T07:07:07.044Z,16.72
2023-05-02T07:13:09.570Z,16.81
2023-05-02T07:19:14.394Z,17.48
2023-05-02T07:25:16.535Z,17.65
2023-05-02T07:31:19.996Z,17.89
2023-05-02T07:37:22.471Z,18.15
2023-05-02T07:43:24.940Z,18.19
2023-05-02T07:49:28.422Z,18.56
2023-05-02T07:55:33.149Z,18.81
2023-05-02T08:01:39.031Z,19.20
2023-05-02T08:07:41.882Z,19.60
2023-05-02T08:13:49.361Z,19.30
2023-05-02T08:19:52.734Z,19.14
2023-05-02T08:26:02.228Z,19.32
2023-05-02T08:32:09.404Z,19.94
2023-05-02T08:44:34.892Z,20.02
2023-05-02T08:50:42.396Z,19.75
2023-05-02T08:56:48.094Z,19.70
2023-05-02T09:03:17.531Z,20.53
2023-05-02T09:09:21.673Z,20.55
2023-05-02T09:15:24.422Z,20.00
2023-05-02T09:21:38.126Z,20.58
2023-05-02T09:27:57.332Z,20.94
2023-05-02T09:34:15.669Z,21.35
2023-05-02T09:40:18.546Z,21.24
2023-05-02T09:46:27.499Z,20.09
2023-05-02T09:52:33.549Z,21.45
2023-05-02T09:58:35.999Z,21.38
2023-05-02T10:04:50.497Z,21.65
2023-05-02T10:10:59.974Z,21.42
2023-05-02T10:17:06.949Z,21.73
2023-05-02T10:23:17.174Z,21.52
2023-05-02T10:29:21.253Z,22.19
2023-05-02T10:35:29.052Z,22.10
2023-05-02T10:41:45.558Z,22.31
2023-05-02T10:47:48.090Z,22.21
2023-05-02T10:53:53.890Z,22.35
2023-05-02T11:00:35.696Z,21.19
2023-05-02T11:06:58.807Z,20.91
2023-05-02T11:13:02.264Z,21.86
2023-05-02T11:19:09.806Z,21.79
2023-05-02T11:25:41.373Z,22.66
2023-05-02T11:31:54.717Z,23.04
2023-05-02T11:38:22.443Z,22.97
2023-05-02T11:44:38.091Z,22.15
2023-05-02T11:50:51.552Z,22.60
2023-05-02T11:56:55.030Z,21.89
2023-05-02T12:03:00.695Z,22.91
2023-05-02T12:09:29.472Z,21.32
2023-05-02T12:15:52.835Z,22.77
2023-05-02T12:28:28.742Z,22.48
2023-05-02T12:34:35.246Z,22.86
2023-05-02T12:40:49.789Z,22.58
2023-05-02T12:53:25.813Z,21.97
2023-05-02T12:59:39.816Z,23.12
2023-05-02T13:05:46.881Z,22.92
2023-05-02T13:11:55.402Z,23.22
2023-05-02T13:18:00.960Z,22.89
2023-05-02T13:24:11.338Z,23.14
2023-05-02T13:30:56.885Z,21.71
2023-05-02T13:37:05.348Z,22.90
2023-05-02T13:43:07.974Z,23.18
2023-05-02T13:49:22.830Z,23.13
2023-05-02T13:55:26.430Z,23.38
2023-05-02T14:01:31.337Z,22.49
2023-05-02T14:07:50.661Z,23.02
2023-05-02T14:14:02.306Z,23.16
2023-05-02T14:20:08.078Z,22.76
2023-05-02T14:26:36.647Z,23.22
2023-05-02T14:32:49.140Z,22.86
2023-05-02T14:38:54.932Z,22.96
2023-05-02T14:45:08.066Z,22.40
2023-05-02T14:51:13.693Z,22.88
2023-05-02T14:57:16.235Z,22.73
2023-05-02T15:03:18.866Z,22.78
2023-05-02T15:09:30.312Z,22.69
2023-05-02T15:15:33.440Z,22.31
2023-05-02T15:21:41.193Z,22.40
2023-05-02T15:27:48.701Z,22.07
2023-05-02T15:33:59.109Z,22.15
2023-05-02T15:40:01.828Z,21.42
2023-05-02T15:46:13.989Z,21.12
2023-05-02T15:52:50.930Z,21.78
2023-05-02T15:59:02.772Z,21.31
2023-05-02T16:05:07.670Z,21.31
2023-05-02T16:11:10.251Z,20.89
2023-05-02T16:23:33.223Z,20.76
2023-05-02T16:29:35.750Z,20.51
2023-05-02T16:35:47.238Z,20.33
2023-05-02T16:41:51.706Z,20.05
2023-05-02T16:47:54.278Z,19.76
2023-05-02T16:53:59.889Z,19.61
2023-05-02T17:00:12.767Z,19.30
2023-05-02T17:06:16.706Z,19.05
2023-05-02T17:12:23.187Z,19.13
2023-05-02T17:18:27.668Z,18.26
2023-05-02T17:24:31.205Z,18.95
2023-05-02T17:30:34.591Z,18.74
2023-05-02T17:36:38.163Z,18.52
2023-05-02T17:42:44.603Z,17.84
2023-05-02T17:48:47.104Z,18.07
2023-05-02T17:54:49.559Z,17.87
2023-05-02T18:00:53.022Z,17.64
2023-05-02T18:06:56.649Z,17.12
2023-05-02T18:12:58.989Z,17.08
2023-05-02T18:19:02.460Z,17.33
2023-05-02T18:25:08.036Z,17.36
2023-05-02T18:31:17.548Z,16.83
2023-05-02T18:37:19.942Z,17.10
2023-05-02T18:43:22.443Z,17.17
2023-05-02T18:49:26.885Z,17.18
2023-05-02T18:55:30.419Z,17.10
2023-05-02T19:01:32.841Z,16.28
2023-05-02T19:07:37.539Z,16.60
2023-05-02T19:13:41.752Z,16.53
2023-05-02T19:19:49.276Z,16.85
2023-05-02T19:25:51.716Z,16.64
2023-05-02T19:31:59.863Z,16.62
2023-05-02T19:38:02.743Z,16.69
2023-05-02T19:44:05.206Z,16.85
2023-05-02T19:50:26.806Z,16.95
2023-05-02T19:56:30.295Z,16.94
2023-05-02T20:08:53.104Z,16.91
2023-05-02T20:15:20.190Z,16.07
2023-05-02T20:21:22.288Z,16.14
2023-05-02T20:27:24.812Z,16.48
2023-05-02T20:33:41.210Z,16.01
2023-05-02T20:39:47.794Z,16.24
2023-05-02T20:45:52.327Z,15.81
2023-05-02T20:51:54.751Z,15.97
2023-05-02T20:57:56.905Z,15.68
2023-05-02T21:03:59.813Z,15.77
2023-05-02T21:10:02.442Z,15.45
2023-05-02T21:16:05.729Z,15.44
2023-05-02T21:22:08.123Z,15.16
2023-05-02T21:28:11.572Z,14.91
2023-05-02T21:34:14.036Z,14.41
2023-05-02T21:40:16.546Z,15.16
2023-05-02T21:46:19.077Z,15.14
2023-05-02T21:52:21.540Z,14.85
2023-05-02T21:58:27.055Z,14.26
2023-05-02T22:04:29.506Z,14.71
2023-05-02T22:10:32.037Z,14.10
2023-05-02T22:16:34.556Z,14.07
2023-05-02T22:22:40.763Z,14.20
2023-05-02T22:28:43.542Z,14.51
2023-05-02T22:35:01.953Z,14.32
2023-05-02T22:41:15.648Z,14.20
2023-05-02T22:47:18.058Z,14.06
2023-05-02T22:53:23.578Z,14.01
2023-05-02T22:59:25.694Z,13.58
2023-05-02T23:05:27.467Z,13.72
2023-05-02T23:11:29.908Z,13.57
2023-05-02T23:17:32.412Z,13.71
2023-05-02T23:23:34.864Z,13.64
2023-05-02T23:29:37.381Z,13.06
2023-05-02T23:35:39.813Z,12.70
2023-05-02T23:41:42.274Z,12.84
2023-05-02T23:47:45.800Z,12.81
2023-05-02T23:53:48.245Z,12.66
2023-05-02T23:59:51.716Z,12.42
